createdAt,value
2022-08-02T00:01:02.024Z,2.65
2022-08-02T00:03:30.870Z,3.30
2022-08-02T00:05:58.641Z,3.20
2022-08-02T00:08:25.939Z,2.78
2022-08-02T00:10:54.422Z,3.28
2022-08-02T00:16:37.644Z,2.58
2022-08-02T00:19:06.120Z,3.00
2022-08-02T00:21:34.135Z,3.80
2022-08-02T00:24:28.576Z,2.80
2022-08-02T00:26:49.978Z,3.20
2022-08-02T00:29:26.580Z,2.83
2022-08-02T00:32:18.531Z,2.33
2022-08-02T00:34:51.473Z,3.33
2022-08-02T00:37:19.132Z,2.10
2022-08-02T00:39:46.905Z,3.05
2022-08-02T00:42:16.412Z,2.38
2022-08-02T00:44:45.703Z,2.90
2022-08-02T00:47:19.798Z,2.88
2022-08-02T00:49:47.669Z,3.05
2022-08-02T00:52:15.567Z,3.20
2022-08-02T00:54:43.635Z,3.08
2022-08-02T00:57:10.896Z,2.92
2022-08-02T00:59:38.250Z,3.20
2022-08-02T01:02:06.964Z,2.70
2022-08-02T01:04:34.773Z,3.05
2022-08-02T01:07:12.089Z,2.88
2022-08-02T01:09:43.221Z,2.75
2022-08-02T01:12:11.987Z,3.35
2022-08-02T01:14:42.822Z,2.95
2022-08-02T01:17:19.025Z,3.00
2022-08-02T01:20:08.971Z,2.90
2022-08-02T01:23:05.057Z,3.03
2022-08-02T01:25:50.428Z,3.00
2022-08-02T01:28:37.006Z,3.20
2022-08-02T01:31:16.708Z,3.42
2022-08-02T01:34:01.567Z,3.13
2022-08-02T01:36:35.649Z,3.33
2022-08-02T01:39:05.697Z,3.05
2022-08-02T01:41:35.331Z,3.80
2022-08-02T01:44:04.319Z,3.35
2022-08-02T01:46:34.804Z,3.30
2022-08-02T01:49:06.858Z,3.38
2022-08-02T01:51:57.187Z,3.03
2022-08-02T01:54:29.885Z,3.28
2022-08-02T01:56:59.682Z,2.88
2022-08-02T01:59:32.464Z,2.83
2022-08-02T02:02:01.941Z,2.70
2022-08-02T02:04:32.316Z,3.67
2022-08-02T02:07:00.193Z,3.03
2022-08-02T02:09:31.039Z,2.90
2022-08-02T02:12:11.804Z,2.50
2022-08-02T02:14:51.511Z,3.17
2022-08-02T02:17:57.179Z,2.92
2022-08-02T02:20:15.618Z,3.10
2022-08-02T02:22:48.477Z,2.80
2022-08-02T02:25:26.208Z,2.80
2022-08-02T02:28:09.483Z,2.95
2022-08-02T02:30:40.389Z,3.65
2022-08-02T02:33:09.960Z,3.10
2022-08-02T02:35:42.488Z,3.90
2022-08-02T02:38:14.186Z,2.97
2022-08-02T02:40:42.508Z,2.90
2022-08-02T02:43:14.285Z,3.10
2022-08-02T02:45:42.775Z,3.33
2022-08-02T02:48:12.608Z,3.30
2022-08-02T02:50:41.742Z,3.30
2022-08-02T02:53:11.088Z,2.47
2022-08-02T02:55:39.581Z,3.10
2022-08-02T02:58:08.992Z,3.00
2022-08-02T03:00:55.529Z,2.97
2022-08-02T03:03:24.016Z,2.97
2022-08-02T03:05:51.958Z,3.35
2022-08-02T03:08:19.540Z,2.88
2022-08-02T03:10:48.032Z,2.95
2022-08-02T03:13:16.411Z,3.38
2022-08-02T03:15:43.730Z,2.92
2022-08-02T03:18:11.482Z,2.80
2022-08-02T03:20:41.166Z,2.92
2022-08-02T03:23:09.743Z,2.80
2022-08-02T03:25:37.470Z,3.03
2022-08-02T03:28:05.089Z,3.40
2022-08-02T03:30:32.424Z,3.13
2022-08-02T03:33:01.360Z,3.10
2022-08-02T03:35:28.990Z,3.60
2022-08-02T03:37:57.054Z,3.42
2022-08-02T03:40:26.306Z,2.95
2022-08-02T03:42:55.163Z,3.30
2022-08-02T03:45:23.245Z,4.03
2022-08-02T03:47:52.080Z,4.50
2022-08-02T03:50:23.096Z,3.75
2022-08-02T03:52:51.020Z,3.65
2022-08-02T03:55:18.845Z,3.40
2022-08-02T03:57:46.066Z,3.30
2022-08-02T04:00:19.489Z,3.13
2022-08-02T04:02:48.278Z,3.28
2022-08-02T04:05:17.142Z,3.60
2022-08-02T04:08:34.234Z,3.42
2022-08-02T04:10:54.068Z,3.53
2022-08-02T04:13:27.454Z,3.67
2022-08-02T04:16:03.789Z,4.13
2022-08-02T04:18:39.849Z,4.95
2022-08-02T04:21:09.611Z,5.80
2022-08-02T04:23:38.483Z,5.75
2022-08-02T04:26:08.543Z,4.32
2022-08-02T04:28:39.300Z,4.10
2022-08-02T04:31:07.710Z,4.00
2022-08-02T04:33:36.917Z,4.13
2022-08-02T04:36:07.305Z,3.97
2022-08-02T04:38:34.819Z,3.40
2022-08-02T04:41:02.130Z,3.28
2022-08-02T04:43:29.698Z,3.38
2022-08-02T04:45:57.047Z,3.13
2022-08-02T04:48:24.911Z,3.00
2022-08-02T04:50:53.244Z,3.40
2022-08-02T04:53:20.753Z,3.40
2022-08-02T04:55:48.234Z,2.35
2022-08-02T04:58:39.289Z,2.83
2022-08-02T05:01:03.903Z,2.58
2022-08-02T05:03:31.597Z,3.03
2022-08-02T05:06:01.009Z,3.13
2022-08-02T05:08:28.781Z,2.42
2022-08-02T05:10:56.559Z,3.00
2022-08-02T05:13:23.927Z,3.00
2022-08-02T05:15:51.550Z,3.00
2022-08-02T05:18:19.484Z,2.72
2022-08-02T05:20:48.111Z,3.00
2022-08-02T05:23:18.242Z,2.70
2022-08-02T05:25:50.193Z,2.30
2022-08-02T05:28:21.399Z,2.30
2022-08-02T05:30:51.614Z,2.55
2022-08-02T05:33:23.017Z,2.72
2022-08-02T05:35:50.663Z,2.63
2022-08-02T05:38:18.078Z,2.53
2022-08-02T05:40:53.577Z,2.65
2022-08-02T05:43:25.780Z,2.65
2022-08-02T05:45:55.938Z,2.50
2022-08-02T05:48:29.303Z,2.60
2022-08-02T05:51:11.277Z,2.78
2022-08-02T05:53:45.248Z,2.65
2022-08-02T05:56:24.087Z,2.90
2022-08-02T05:59:08.690Z,3.22
2022-08-02T06:01:41.582Z,3.17
2022-08-02T06:04:11.670Z,2.70
2022-08-02T06:06:45.548Z,2.30
2022-08-02T06:09:23.168Z,1.98
2022-08-02T06:12:02.493Z,2.70
2022-08-02T06:14:43.274Z,2.97
2022-08-02T06:17:11.907Z,2.20
2022-08-02T06:19:51.143Z,2.58
2022-08-02T06:22:42.340Z,2.15
2022-08-02T06:25:11.753Z,2.35
2022-08-02T06:27:57.750Z,2.25
2022-08-02T06:30:27.011Z,2.55
2022-08-02T06:32:54.902Z,2.55
2022-08-02T06:35:31.584Z,2.00
2022-08-02T06:38:02.991Z,2.50
2022-08-02T06:40:36.242Z,1.90
2022-08-02T06:43:39.311Z,2.17
2022-08-02T06:46:38.093Z,1.85
2022-08-02T06:49:13.438Z,1.95
2022-08-02T06:51:43.766Z,2.25
2022-08-02T06:54:20.260Z,1.50
2022-08-02T06:56:51.197Z,2.30
2022-08-02T06:59:21.678Z,1.98
2022-08-02T07:01:49.094Z,1.90
2022-08-02T07:04:19.942Z,2.08
2022-08-02T07:06:52.047Z,1.90
2022-08-02T07:09:21.367Z,1.70
2022-08-02T07:11:50.105Z,1.88
2022-08-02T07:14:17.611Z,2.22
2022-08-02T07:16:48.480Z,2.40
2022-08-02T07:19:17.865Z,1.98
2022-08-02T07:21:56.283Z,2.30
2022-08-02T07:24:25.014Z,2.42
2022-08-02T07:27:09.913Z,2.25
2022-08-02T07:29:46.071Z,1.85
2022-08-02T07:32:29.073Z,2.42
2022-08-02T07:35:07.046Z,2.50
2022-08-02T07:37:58.129Z,1.60
2022-08-02T07:40:36.871Z,1.92
2022-08-02T07:43:17.942Z,1.83
2022-08-02T07:45:55.660Z,1.75
2022-08-02T07:48:27.200Z,1.42
2022-08-02T07:50:55.566Z,1.80
2022-08-02T07:53:50.386Z,2.22
2022-08-02T07:56:14.860Z,2.10
2022-08-02T07:58:43.109Z,1.98
2022-08-02T08:01:10.688Z,1.42
2022-08-02T08:03:38.340Z,1.85
2022-08-02T08:06:05.839Z,1.83
2022-08-02T08:08:35.316Z,1.40
2022-08-02T08:11:03.304Z,2.00
2022-08-02T08:13:30.752Z,1.25
2022-08-02T08:16:00.082Z,1.60
2022-08-02T08:18:27.638Z,1.42
2022-08-02T08:20:55.038Z,1.75
2022-08-02T08:23:22.659Z,1.60
2022-08-02T08:25:51.205Z,1.95
2022-08-02T08:28:18.486Z,1.52
2022-08-02T08:30:48.444Z,1.50
2022-08-02T08:33:18.876Z,1.58
2022-08-02T08:35:47.451Z,1.52
2022-08-02T08:38:16.287Z,1.88
2022-08-02T08:40:45.309Z,2.20
2022-08-02T08:43:15.157Z,1.75
2022-08-02T08:45:56.176Z,1.75
2022-08-02T08:48:31.987Z,1.58
2022-08-02T08:51:30.875Z,1.85
2022-08-02T08:54:05.017Z,1.63
2022-08-02T08:56:35.179Z,1.52
2022-08-02T08:59:05.065Z,1.38
2022-08-02T09:01:49.717Z,1.55
2022-08-02T09:04:19.188Z,1.98
2022-08-02T09:06:47.756Z,1.48
2022-08-02T09:09:15.332Z,1.80
2022-08-02T09:11:42.742Z,1.55
2022-08-02T09:14:10.443Z,1.50
2022-08-02T09:16:40.992Z,1.38
2022-08-02T09:19:26.085Z,1.67
2022-08-02T09:22:05.401Z,2.00
2022-08-02T09:24:45.849Z,1.73
2022-08-02T09:27:19.334Z,1.40
2022-08-02T09:32:48.920Z,1.55
2022-08-02T09:36:07.050Z,1.27
2022-08-02T09:38:26.170Z,1.13
2022-08-02T09:40:55.563Z,0.73
2022-08-02T09:43:36.159Z,1.17
2022-08-02T09:46:22.792Z,4.28
2022-08-02T09:48:55.077Z,1.05
2022-08-02T09:51:30.208Z,1.40
2022-08-02T09:54:08.765Z,1.63
2022-08-02T09:56:44.492Z,1.10
2022-08-02T09:59:14.297Z,1.05
2022-08-02T10:01:50.518Z,1.30
2022-08-02T10:04:30.816Z,1.40
2022-08-02T10:07:04.713Z,0.98
2022-08-02T10:09:34.411Z,1.20
2022-08-02T10:12:03.542Z,0.95
2022-08-02T10:14:35.432Z,1.30
2022-08-02T10:17:05.844Z,1.48
2022-08-02T10:20:00.440Z,1.30
2022-08-02T10:22:25.815Z,1.48
2022-08-02T10:24:54.327Z,1.15
2022-08-02T10:27:25.434Z,1.00
2022-08-02T10:29:59.473Z,1.13
2022-08-02T10:32:50.247Z,1.42
2022-08-02T10:35:25.538Z,1.00
2022-08-02T10:37:58.435Z,1.02
2022-08-02T10:40:42.268Z,1.50
2022-08-02T10:43:13.379Z,1.60
2022-08-02T10:45:41.346Z,1.42
2022-08-02T10:48:14.938Z,1.15
2022-08-02T10:50:45.695Z,1.30
2022-08-02T10:53:24.405Z,1.25
2022-08-02T10:55:53.757Z,0.80
2022-08-02T10:58:26.028Z,1.23
2022-08-02T11:00:55.344Z,1.25
2022-08-02T11:03:28.838Z,1.10
2022-08-02T11:06:04.465Z,1.15
2022-08-02T11:08:32.738Z,1.15
2022-08-02T11:11:02.406Z,1.23
2022-08-02T11:13:30.450Z,1.55
2022-08-02T11:16:10.978Z,1.20
2022-08-02T11:18:51.561Z,0.82
2022-08-02T11:21:31.532Z,1.00
2022-08-02T11:24:31.951Z,0.98
2022-08-02T11:27:02.592Z,1.30
2022-08-02T11:29:38.466Z,1.10
2022-08-02T11:32:20.820Z,1.10
2022-08-02T11:34:51.800Z,1.45
2022-08-02T11:37:36.493Z,1.38
2022-08-02T11:40:19.166Z,1.13
2022-08-02T11:42:53.921Z,1.42
2022-08-02T11:45:29.782Z,1.08
2022-08-02T11:47:57.763Z,1.05
2022-08-02T11:50:30.009Z,1.13
2022-08-02T11:52:58.286Z,1.38
2022-08-02T11:55:30.244Z,0.90
2022-08-02T11:58:05.423Z,1.48
2022-08-02T12:00:33.535Z,1.15
2022-08-02T12:03:01.401Z,1.00
2022-08-02T12:08:19.290Z,1.02
2022-08-02T12:10:50.341Z,0.80
2022-08-02T12:13:17.701Z,0.98
2022-08-02T12:15:46.873Z,1.20
2022-08-02T12:18:38.508Z,1.27
2022-08-02T12:21:22.864Z,0.95
2022-08-02T12:24:00.268Z,1.20
2022-08-02T12:26:30.158Z,1.13
2022-08-02T12:28:59.638Z,1.10
2022-08-02T12:31:57.253Z,1.42
2022-08-02T12:34:31.285Z,1.00
2022-08-02T12:37:08.071Z,1.05
2022-08-02T12:39:41.135Z,1.00
2022-08-02T12:42:11.579Z,1.17
2022-08-02T12:45:00.308Z,1.23
2022-08-02T12:47:31.338Z,1.10
2022-08-02T12:50:14.995Z,1.17
2022-08-02T12:52:42.845Z,1.20
2022-08-02T12:55:20.432Z,1.48
2022-08-02T12:58:01.835Z,1.08
2022-08-02T13:00:34.636Z,1.20
2022-08-02T13:03:04.547Z,1.00
2022-08-02T13:05:57.177Z,1.30
2022-08-02T13:08:23.218Z,1.30
2022-08-02T13:10:50.691Z,1.45
2022-08-02T13:13:18.020Z,1.15
2022-08-02T13:15:50.256Z,0.80
2022-08-02T13:18:18.645Z,1.55
2022-08-02T13:20:46.017Z,1.08
2022-08-02T13:23:21.531Z,1.15
2022-08-02T13:25:52.563Z,1.17
2022-08-02T13:28:21.438Z,1.63
2022-08-02T13:30:49.271Z,1.00
2022-08-02T13:33:17.400Z,1.10
2022-08-02T13:35:45.494Z,0.98
2022-08-02T13:38:12.690Z,1.10
2022-08-02T13:41:04.704Z,1.23
2022-08-02T13:43:54.906Z,5.20
2022-08-02T13:46:29.020Z,1.20
2022-08-02T13:48:57.815Z,1.38
2022-08-02T13:51:25.481Z,1.10
2022-08-02T13:53:53.882Z,1.17
2022-08-02T13:56:35.586Z,1.15
2022-08-02T13:59:23.631Z,1.10
2022-08-02T14:01:54.108Z,0.98
2022-08-02T14:04:21.809Z,1.27
2022-08-02T14:06:49.164Z,1.17
2022-08-02T14:09:17.113Z,1.92
2022-08-02T14:11:48.447Z,1.00
2022-08-02T14:14:17.380Z,1.15
2022-08-02T14:16:45.663Z,1.25
2022-08-02T14:19:16.778Z,1.60
2022-08-02T14:21:46.316Z,1.30
2022-08-02T14:24:18.456Z,0.88
2022-08-02T14:26:47.070Z,1.17
2022-08-02T14:29:15.696Z,1.10
2022-08-02T14:31:45.389Z,1.50
2022-08-02T14:34:13.938Z,1.20
2022-08-02T14:36:41.455Z,2.65
2022-08-02T14:39:10.801Z,1.35
2022-08-02T14:41:59.236Z,1.52
2022-08-02T14:44:29.010Z,1.33
2022-08-02T14:46:57.655Z,1.35
2022-08-02T14:49:26.746Z,1.40
2022-08-02T14:51:56.354Z,1.50
2022-08-02T14:54:31.188Z,1.40
2022-08-02T14:57:04.177Z,0.90
2022-08-02T14:59:33.036Z,1.13
2022-08-02T15:02:01.763Z,1.25
2022-08-02T15:04:29.124Z,1.20
2022-08-02T15:07:07.526Z,1.60
2022-08-02T15:09:35.482Z,1.05
2022-08-02T15:12:10.159Z,1.23
2022-08-02T15:14:38.956Z,1.55
2022-08-02T15:17:07.565Z,1.20
2022-08-02T15:19:56.731Z,1.23
2022-08-02T15:22:23.965Z,1.42
2022-08-02T15:24:51.968Z,1.30
2022-08-02T15:27:21.528Z,0.98
2022-08-02T15:29:50.525Z,1.35
2022-08-02T15:32:19.913Z,1.40
2022-08-02T15:34:47.814Z,1.40
2022-08-02T15:37:15.527Z,1.27
2022-08-02T15:39:48.325Z,1.13
2022-08-02T15:42:18.650Z,1.38
2022-08-02T15:44:48.507Z,1.20
2022-08-02T15:47:19.757Z,1.10
2022-08-02T15:49:48.886Z,1.10
2022-08-02T15:52:20.268Z,0.90
2022-08-02T15:54:48.409Z,2.17
2022-08-02T15:57:18.369Z,6.63
2022-08-02T15:59:47.118Z,8.13
2022-08-02T16:02:16.460Z,9.65
2022-08-02T16:04:45.197Z,5.65
2022-08-02T16:07:13.321Z,9.55
2022-08-02T16:09:46.650Z,2.15
2022-08-02T16:12:15.344Z,1.77
2022-08-02T16:14:49.455Z,1.45
2022-08-02T16:17:48.293Z,1.30
2022-08-02T16:20:05.234Z,3.13
2022-08-02T16:22:32.779Z,1.80
2022-08-02T16:25:03.300Z,1.20
2022-08-02T16:27:31.076Z,7.50
2022-08-02T16:29:58.772Z,1.10
2022-08-02T16:32:26.173Z,1.55
2022-08-02T16:35:08.128Z,1.33
2022-08-02T16:37:51.872Z,1.30
2022-08-02T16:40:21.600Z,1.55
2022-08-02T16:42:50.546Z,1.40
2022-08-02T16:45:20.969Z,1.42
2022-08-02T16:47:57.447Z,1.30
2022-08-02T16:50:36.102Z,1.08
2022-08-02T16:53:07.545Z,1.23
2022-08-02T16:55:38.266Z,1.55
2022-08-02T16:58:09.764Z,1.85
2022-08-02T17:00:38.211Z,1.20
2022-08-02T17:03:15.409Z,1.38
2022-08-02T17:05:56.971Z,1.27
2022-08-02T17:08:31.705Z,1.50
2022-08-02T17:11:03.813Z,1.70
2022-08-02T17:13:34.159Z,2.00
2022-08-02T17:16:20.953Z,1.30
2022-08-02T17:18:54.567Z,1.38
2022-08-02T17:21:22.555Z,1.58
2022-08-02T17:24:05.580Z,1.30
2022-08-02T17:26:36.434Z,2.35
2022-08-02T17:29:16.232Z,1.42
2022-08-02T17:32:05.714Z,1.45
2022-08-02T17:37:21.982Z,2.00
2022-08-02T17:39:51.954Z,1.52
2022-08-02T17:42:23.378Z,2.08
2022-08-02T17:44:53.269Z,2.60
2022-08-02T17:47:22.015Z,3.13
2022-08-02T17:49:52.821Z,2.53
2022-08-02T17:52:50.383Z,2.28
2022-08-02T17:55:13.705Z,2.10
2022-08-02T17:57:57.115Z,2.33
2022-08-02T18:00:36.375Z,1.90
2022-08-02T18:03:10.165Z,3.08
2022-08-02T18:05:55.356Z,2.88
2022-08-02T18:08:25.914Z,2.53
2022-08-02T18:10:56.518Z,2.55
2022-08-02T18:13:32.809Z,2.47
2022-08-02T18:16:06.367Z,2.85
2022-08-02T18:18:58.320Z,2.65
2022-08-02T18:21:37.014Z,2.47
2022-08-02T18:24:08.595Z,2.40
2022-08-02T18:26:46.748Z,3.03
2022-08-02T18:29:30.054Z,4.68
2022-08-02T18:32:11.410Z,3.97
2022-08-02T18:35:13.045Z,4.88
2022-08-02T18:37:48.993Z,5.25
2022-08-02T18:40:29.359Z,4.65
2022-08-02T18:42:58.765Z,4.50
2022-08-02T18:45:36.878Z,4.68
2022-08-02T18:48:20.309Z,4.65
2022-08-02T18:50:53.163Z,4.05
2022-08-02T18:53:39.555Z,2.42
2022-08-02T18:56:20.405Z,2.58
2022-08-02T18:58:55.535Z,2.75
2022-08-02T19:01:33.901Z,2.83
2022-08-02T19:04:08.692Z,3.03
2022-08-02T19:06:40.059Z,2.70
2022-08-02T19:09:13.624Z,3.22
2022-08-02T19:14:33.538Z,2.78
2022-08-02T19:17:53.253Z,2.78
2022-08-02T19:19:52.551Z,2.22
2022-08-02T19:22:27.212Z,2.13
2022-08-02T19:25:01.523Z,2.00
2022-08-02T19:27:32.942Z,2.35
2022-08-02T19:30:04.585Z,2.25
2022-08-02T19:32:42.562Z,2.15
2022-08-02T19:35:30.445Z,2.53
2022-08-02T19:38:12.400Z,2.97
2022-08-02T19:40:45.159Z,2.38
2022-08-02T19:44:26.004Z,2.67
2022-08-02T19:46:05.363Z,5.50
2022-08-02T19:48:33.283Z,4.50
2022-08-02T19:51:02.596Z,2.90
2022-08-02T19:53:48.899Z,2.80
2022-08-02T19:56:25.187Z,2.25
2022-08-02T19:58:58.665Z,3.55
2022-08-02T20:01:38.862Z,2.65
2022-08-02T20:04:14.010Z,2.67
2022-08-02T20:06:47.705Z,2.72
2022-08-02T20:09:21.316Z,2.95
2022-08-02T20:11:54.935Z,3.40
2022-08-02T20:14:26.712Z,4.80
2022-08-02T20:16:58.095Z,3.10
2022-08-02T20:19:28.972Z,3.05
2022-08-02T20:22:00.646Z,2.83
2022-08-02T20:24:31.355Z,2.95
2022-08-02T20:27:02.984Z,2.95
2022-08-02T20:29:44.649Z,2.50
2022-08-02T20:32:23.711Z,2.55
2022-08-02T20:34:52.703Z,2.53
2022-08-02T20:37:59.800Z,2.40
2022-08-02T20:40:09.833Z,2.08
2022-08-02T20:42:47.498Z,1.83
2022-08-02T20:45:42.213Z,2.65
2022-08-02T20:48:09.677Z,2.75
2022-08-02T20:50:50.874Z,2.55
2022-08-02T20:53:23.169Z,2.92
2022-08-02T20:55:55.826Z,3.05
2022-08-02T20:58:27.006Z,3.17
2022-08-02T21:03:47.110Z,2.60
2022-08-02T21:06:28.169Z,2.67
2022-08-02T21:08:57.073Z,2.80
2022-08-02T21:11:33.326Z,2.60
2022-08-02T21:14:06.508Z,2.30
2022-08-02T21:16:37.282Z,2.20
2022-08-02T21:19:09.632Z,2.28
2022-08-02T21:21:38.002Z,2.25
2022-08-02T21:24:05.675Z,2.40
2022-08-02T21:26:33.184Z,2.80
2022-08-02T21:29:03.684Z,2.40
2022-08-02T21:31:35.841Z,2.83
2022-08-02T21:34:26.439Z,2.38
2022-08-02T21:36:53.585Z,2.22
2022-08-02T21:39:21.377Z,2.28
2022-08-02T21:41:50.074Z,2.95
2022-08-02T21:44:19.858Z,2.17
2022-08-02T21:46:49.966Z,2.22
2022-08-02T21:49:18.850Z,2.42
2022-08-02T21:51:49.287Z,2.47
2022-08-02T21:54:20.910Z,2.58
2022-08-02T21:56:52.155Z,2.47
2022-08-02T21:59:25.489Z,3.03
2022-08-02T22:01:57.783Z,2.22
2022-08-02T22:04:26.346Z,2.40
2022-08-02T22:06:55.357Z,2.83
2022-08-02T22:09:44.206Z,3.55
2022-08-02T22:12:18.084Z,4.45
2022-08-02T22:14:54.131Z,3.97
2022-08-02T22:17:51.903Z,3.53
2022-08-02T22:20:19.796Z,4.20
2022-08-02T22:22:53.375Z,3.60
2022-08-02T22:25:26.747Z,3.65
2022-08-02T22:28:36.225Z,4.07
2022-08-02T22:30:58.176Z,4.10
2022-08-02T22:34:00.183Z,4.38
2022-08-02T22:36:31.045Z,3.30
2022-08-02T22:38:59.498Z,4.10
2022-08-02T22:42:01.295Z,3.80
2022-08-02T22:44:14.745Z,3.33
2022-08-02T22:46:44.051Z,4.03
2022-08-02T22:49:36.996Z,3.35
2022-08-02T22:51:59.119Z,3.75
2022-08-02T22:54:26.868Z,3.22
2022-08-02T22:56:54.157Z,3.35
2022-08-02T22:59:00.143Z,2.80
2022-08-02T22:59:10.286Z,2.53
2022-08-02T22:59:39.459Z,3.15
2022-08-02T23:02:08.402Z,3.50
2022-08-02T23:04:36.859Z,3.58
2022-08-02T23:07:04.513Z,3.22
2022-08-02T23:09:31.818Z,3.42
2022-08-02T23:11:59.314Z,4.47
2022-08-02T23:14:26.576Z,3.92
2022-08-02T23:17:12.621Z,4.22
2022-08-02T23:19:52.200Z,3.45
2022-08-02T23:22:30.146Z,3.38
2022-08-02T23:25:01.301Z,3.00
2022-08-02T23:27:30.348Z,3.15
2022-08-02T23:29:58.198Z,3.30
2022-08-02T23:32:26.230Z,3.05
2022-08-02T23:34:54.637Z,3.38
2022-08-02T23:37:22.735Z,3.40
2022-08-02T23:39:50.342Z,3.08
2022-08-02T23:42:17.866Z,3.17
2022-08-02T23:44:45.382Z,3.10
2022-08-02T23:47:12.746Z,3.42
2022-08-02T23:49:40.297Z,3.28
2022-08-02T23:52:07.955Z,3.13
2022-08-02T23:54:35.486Z,2.85
2022-08-02T23:57:20.331Z,3.08
2022-08-02T23:59:50.796Z,3.17
